createdAt,value
2022-10-05T00:00:54.793Z,35
2022-10-05T00:03:54.861Z,46
2022-10-05T00:06:54.786Z,48
2022-10-05T00:08:54.849Z,47
2022-10-05T00:11:54.792Z,57
2022-10-05T00:14:54.793Z,43
2022-10-05T00:16:54.841Z,35
2022-10-05T00:18:54.829Z,47
2022-10-05T00:21:54.783Z,29
2022-10-05T00:23:54.829Z,42
2022-10-05T00:26:57.881Z,33
2022-10-05T00:28:54.793Z,39
2022-10-05T00:31:54.932Z,50
2022-10-05T00:34:54.764Z,39
2022-10-05T00:36:54.829Z,34
2022-10-05T00:39:54.792Z,79
2022-10-05T00:42:54.820Z,84
2022-10-05T00:44:54.794Z,59
2022-10-05T00:47:54.800Z,65
2022-10-05T00:50:54.802Z,50
2022-10-05T00:52:54.830Z,58
2022-10-05T00:55:54.806Z,71
2022-10-05T00:58:54.925Z,68
2022-10-05T01:01:54.852Z,85
2022-10-05T01:05:54.784Z,62
2022-10-05T01:07:54.799Z,50
2022-10-05T01:10:54.807Z,48
2022-10-05T01:13:54.803Z,53
2022-10-05T01:15:54.803Z,37
2022-10-05T01:18:54.790Z,47
2022-10-05T01:20:54.874Z,39
2022-10-05T01:23:54.816Z,75
2022-10-05T01:26:54.811Z,38
2022-10-05T01:29:54.790Z,41
2022-10-05T01:31:55.288Z,28
2022-10-05T01:34:54.760Z,33
2022-10-05T01:36:54.799Z,31
2022-10-05T01:39:54.875Z,28
2022-10-05T01:42:54.801Z,47
2022-10-05T01:44:54.796Z,40
2022-10-05T01:46:54.809Z,45
2022-10-05T01:49:54.801Z,52
2022-10-05T01:51:54.809Z,52
2022-10-05T01:53:54.809Z,39
2022-10-05T01:56:54.793Z,81
2022-10-05T01:58:54.816Z,39
2022-10-05T02:01:54.924Z,40
2022-10-05T02:05:01.759Z,56
2022-10-05T02:07:54.805Z,52
2022-10-05T02:09:54.818Z,64
2022-10-05T02:12:54.804Z,51
2022-10-05T02:15:54.876Z,61
2022-10-05T02:18:54.780Z,75
2022-10-05T02:20:54.814Z,63
2022-10-05T02:22:54.810Z,82
2022-10-05T02:24:54.798Z,77
2022-10-05T02:27:54.887Z,56
2022-10-05T02:29:54.806Z,59
2022-10-05T02:32:54.810Z,39
2022-10-05T02:34:54.773Z,60
2022-10-05T02:36:54.784Z,84
2022-10-05T02:39:54.796Z,36
2022-10-05T02:41:55.668Z,65
2022-10-05T02:44:54.778Z,58
2022-10-05T02:46:57.107Z,29
2022-10-05T02:49:54.824Z,40
2022-10-05T02:52:54.786Z,48
2022-10-05T02:55:54.878Z,41
2022-10-05T02:58:54.805Z,57
2022-10-05T03:01:54.815Z,60
2022-10-05T03:03:54.793Z,40
2022-10-05T03:05:54.811Z,36
2022-10-05T03:08:54.796Z,44
2022-10-05T03:11:54.782Z,49
2022-10-05T03:13:54.799Z,54
2022-10-05T03:16:54.804Z,31
2022-10-05T03:19:54.885Z,60
2022-10-05T03:22:54.797Z,41
2022-10-05T03:24:54.806Z,70
2022-10-05T03:27:54.862Z,81
2022-10-05T03:30:54.870Z,78
2022-10-05T03:32:54.825Z,97
2022-10-05T03:35:54.831Z,53
2022-10-05T03:38:54.847Z,66
2022-10-05T03:41:54.820Z,73
2022-10-05T03:43:54.828Z,64
2022-10-05T03:46:54.837Z,51
2022-10-05T03:49:54.786Z,54
2022-10-05T03:52:54.824Z,87
2022-10-05T03:54:54.823Z,57
2022-10-05T03:57:54.817Z,81
2022-10-05T03:59:54.855Z,66
2022-10-05T04:02:54.874Z,89
2022-10-05T04:05:54.808Z,65
2022-10-05T04:07:54.815Z,51
2022-10-05T04:10:54.887Z,47
2022-10-05T04:13:54.817Z,50
2022-10-05T04:15:54.848Z,54
2022-10-05T04:18:54.850Z,56
2022-10-05T04:20:54.881Z,122
2022-10-05T04:23:54.878Z,57
2022-10-05T04:27:54.891Z,34
2022-10-05T04:30:54.873Z,23
2022-10-05T04:32:54.896Z,17
2022-10-05T04:35:54.808Z,35
2022-10-05T04:37:54.825Z,21
2022-10-05T04:40:54.926Z,23
2022-10-05T04:43:54.800Z,32
2022-10-05T04:46:55.460Z,39
2022-10-05T04:49:54.816Z,58
2022-10-05T04:52:54.838Z,43
2022-10-05T04:54:54.831Z,66
2022-10-05T04:56:54.838Z,73
2022-10-05T04:58:54.829Z,55
2022-10-05T05:00:54.915Z,46
2022-10-05T05:03:54.945Z,43
2022-10-05T05:06:54.838Z,55
2022-10-05T05:09:54.798Z,63
2022-10-05T05:12:54.838Z,57
2022-10-05T05:15:54.853Z,70
2022-10-05T05:18:54.830Z,52
2022-10-05T05:21:54.822Z,63
2022-10-05T05:24:54.823Z,72
2022-10-05T05:26:54.858Z,87
2022-10-05T05:29:54.834Z,97
2022-10-05T05:32:54.847Z,39
2022-10-05T05:35:54.835Z,75
2022-10-05T05:38:54.845Z,75
2022-10-05T05:41:54.838Z,53
2022-10-05T05:44:54.807Z,74
2022-10-05T05:47:04.289Z,66
2022-10-05T05:49:54.796Z,55
2022-10-05T05:52:54.853Z,53
2022-10-05T05:55:54.850Z,69
2022-10-05T05:58:54.841Z,61
2022-10-05T06:01:54.931Z,77
2022-10-05T06:03:54.834Z,82
2022-10-05T06:06:54.855Z,79
2022-10-05T06:09:54.802Z,69
2022-10-05T06:11:54.842Z,71
2022-10-05T06:13:54.829Z,62
2022-10-05T06:16:54.932Z,85
2022-10-05T06:19:54.805Z,65
2022-10-05T06:21:54.859Z,81
2022-10-05T06:24:54.813Z,89
2022-10-05T06:27:54.893Z,56
2022-10-05T06:30:54.884Z,60
2022-10-05T06:33:54.835Z,49
2022-10-05T06:36:54.813Z,66
2022-10-05T06:39:10.267Z,74
2022-10-05T06:40:54.890Z,63
2022-10-05T06:43:54.847Z,68
2022-10-05T06:45:54.942Z,78
2022-10-05T06:49:10.593Z,77
2022-10-05T06:51:54.906Z,69
2022-10-05T06:54:54.840Z,87
2022-10-05T06:56:54.838Z,98
2022-10-05T06:59:54.847Z,85
2022-10-05T07:02:54.805Z,83
2022-10-05T07:04:54.866Z,76
2022-10-05T07:07:54.857Z,93
2022-10-05T07:10:54.818Z,79
2022-10-05T07:12:54.924Z,87
2022-10-05T07:15:54.879Z,69
2022-10-05T07:18:54.796Z,68
2022-10-05T07:20:54.848Z,75
2022-10-05T07:23:54.862Z,57
2022-10-05T07:26:54.799Z,62
2022-10-05T07:29:54.819Z,73
2022-10-05T07:31:54.953Z,149
2022-10-05T07:34:54.823Z,89
2022-10-05T07:37:54.816Z,160
2022-10-05T07:40:00.390Z,176
2022-10-05T07:42:54.832Z,122
2022-10-05T07:44:54.812Z,58
2022-10-05T07:47:54.844Z,61
2022-10-05T07:50:54.829Z,72
2022-10-05T07:53:54.829Z,61
2022-10-05T07:55:54.919Z,71
2022-10-05T07:58:54.843Z,70
2022-10-05T08:01:54.909Z,63
2022-10-05T08:03:54.851Z,77
2022-10-05T08:06:54.835Z,67
2022-10-05T08:08:54.827Z,79
2022-10-05T08:11:55.009Z,74
2022-10-05T08:14:54.825Z,97
2022-10-05T08:17:54.826Z,79
2022-10-05T08:19:54.852Z,109
2022-10-05T08:22:54.862Z,97
2022-10-05T08:25:54.905Z,76
2022-10-05T08:27:54.918Z,107
2022-10-05T08:30:54.879Z,105
2022-10-05T08:32:54.842Z,78
2022-10-05T08:34:54.829Z,95
2022-10-05T08:37:54.855Z,56
2022-10-05T08:40:54.827Z,93
2022-10-05T08:42:54.841Z,111
2022-10-05T08:44:54.855Z,88
2022-10-05T08:47:54.817Z,147
2022-10-05T08:49:54.845Z,91
2022-10-05T08:52:54.830Z,126
2022-10-05T08:55:54.844Z,123
2022-10-05T08:57:54.837Z,89
2022-10-05T09:03:54.868Z,112
2022-10-05T09:05:54.898Z,90
2022-10-05T09:08:54.895Z,102
2022-10-05T09:10:54.885Z,60
2022-10-05T09:13:54.913Z,57
2022-10-05T09:16:54.836Z,94
2022-10-05T09:18:54.893Z,84
2022-10-05T09:21:54.864Z,105
2022-10-05T09:23:54.862Z,89
2022-10-05T09:26:54.843Z,50
2022-10-05T09:29:54.843Z,60
2022-10-05T09:31:54.883Z,55
2022-10-05T09:34:54.865Z,62
2022-10-05T09:37:54.851Z,58
2022-10-05T09:40:54.861Z,53
2022-10-05T09:42:54.881Z,36
2022-10-05T09:45:54.919Z,48
2022-10-05T09:48:54.879Z,71
2022-10-05T09:50:55.104Z,41
2022-10-05T09:53:54.862Z,70
2022-10-05T09:56:54.885Z,57
2022-10-05T09:59:54.890Z,132
2022-10-05T10:02:54.961Z,49
2022-10-05T10:05:54.860Z,64
2022-10-05T10:07:54.914Z,72
2022-10-05T10:09:54.921Z,51
2022-10-05T10:12:54.896Z,52
2022-10-05T10:16:10.446Z,71
2022-10-05T10:17:54.923Z,51
2022-10-05T10:20:56.043Z,69
2022-10-05T10:23:54.897Z,73
2022-10-05T10:25:55.044Z,63
2022-10-05T10:29:54.903Z,45
2022-10-05T10:32:55.320Z,53
2022-10-05T10:35:54.864Z,39
2022-10-05T10:37:54.881Z,32
2022-10-05T10:40:54.877Z,46
2022-10-05T10:42:54.921Z,41
2022-10-05T10:45:54.888Z,44
2022-10-05T10:48:54.868Z,33
2022-10-05T10:50:54.890Z,25
2022-10-05T10:53:54.868Z,54
2022-10-05T10:55:54.874Z,34
2022-10-05T10:57:54.893Z,37
2022-10-05T11:00:54.877Z,60
2022-10-05T11:02:54.969Z,32
2022-10-05T11:05:54.900Z,16
2022-10-05T11:07:54.883Z,26
2022-10-05T11:09:54.901Z,31
2022-10-05T11:12:55.140Z,25
2022-10-05T11:14:54.932Z,65
2022-10-05T11:17:54.896Z,35
2022-10-05T11:20:55.958Z,28
2022-10-05T11:22:54.977Z,23
2022-10-05T11:25:54.901Z,56
2022-10-05T11:28:54.881Z,57
2022-10-05T11:30:54.994Z,38
2022-10-05T11:33:54.898Z,42
2022-10-05T11:36:54.910Z,23
2022-10-05T11:38:54.914Z,40
2022-10-05T11:40:54.955Z,28
2022-10-05T11:43:54.901Z,57
2022-10-05T11:45:54.924Z,31
2022-10-05T11:48:54.868Z,54
2022-10-05T11:50:54.906Z,32
2022-10-05T11:53:54.895Z,25
2022-10-05T11:56:55.019Z,48
2022-10-05T11:58:54.950Z,32
2022-10-05T12:01:54.901Z,23
2022-10-05T12:04:54.903Z,40
2022-10-05T12:07:54.874Z,28
2022-10-05T12:10:54.888Z,20
2022-10-05T12:14:10.754Z,28
2022-10-05T12:16:54.895Z,25
2022-10-05T12:18:54.864Z,29
2022-10-05T12:21:54.918Z,34
2022-10-05T12:23:54.891Z,23
2022-10-05T12:25:54.947Z,16
2022-10-05T12:28:54.901Z,16
2022-10-05T12:30:54.917Z,23
2022-10-05T12:32:58.113Z,19
2022-10-05T12:35:01.392Z,15
2022-10-05T12:37:54.869Z,16
2022-10-05T12:39:54.882Z,60
2022-10-05T12:41:54.901Z,41
2022-10-05T12:43:54.896Z,37
2022-10-05T12:46:54.886Z,30
2022-10-05T12:49:54.868Z,32
2022-10-05T12:52:54.902Z,22
2022-10-05T12:54:55.046Z,30
2022-10-05T12:57:54.913Z,34
2022-10-05T13:00:54.970Z,29
2022-10-05T13:03:54.900Z,20
2022-10-05T13:06:54.896Z,41
2022-10-05T13:08:54.941Z,33
2022-10-05T13:11:54.899Z,30
2022-10-05T13:14:54.921Z,24
2022-10-05T13:17:54.904Z,48
2022-10-05T13:20:54.984Z,28
2022-10-05T13:23:57.332Z,24
2022-10-05T13:25:54.922Z,34
2022-10-05T13:27:54.981Z,63
2022-10-05T13:29:54.932Z,27
2022-10-05T13:31:54.942Z,12
2022-10-05T13:34:54.925Z,43
2022-10-05T13:36:54.932Z,30
2022-10-05T13:39:54.977Z,19
2022-10-05T13:42:54.896Z,43
2022-10-05T13:44:54.918Z,15
2022-10-05T13:47:55.150Z,18
2022-10-05T13:50:54.923Z,21
2022-10-05T13:52:54.923Z,28
2022-10-05T13:55:54.941Z,30
2022-10-05T13:58:54.922Z,18
2022-10-05T14:00:54.947Z,38
2022-10-05T14:03:55.199Z,19
2022-10-05T14:06:54.950Z,54
2022-10-05T14:08:54.987Z,35
2022-10-05T14:11:54.953Z,13
2022-10-05T14:14:54.959Z,15
2022-10-05T14:16:55.156Z,15
2022-10-05T14:19:54.957Z,61
2022-10-05T14:22:54.908Z,13
2022-10-05T14:24:54.939Z,24
2022-10-05T14:27:55.265Z,16
2022-10-05T14:30:58.866Z,11
2022-10-05T14:32:54.915Z,32
2022-10-05T14:34:54.906Z,35
2022-10-05T14:37:54.942Z,15
2022-10-05T14:39:54.953Z,23
2022-10-05T14:42:54.929Z,21
2022-10-05T14:45:55.027Z,47
2022-10-05T14:47:54.964Z,28
2022-10-05T14:50:55.028Z,46
2022-10-05T14:52:54.965Z,26
2022-10-05T14:55:54.968Z,35
2022-10-05T14:58:54.923Z,38
2022-10-05T15:00:54.985Z,51
2022-10-05T15:03:55.288Z,36
2022-10-05T15:06:56.328Z,37
2022-10-05T15:09:54.953Z,59
2022-10-05T15:12:54.941Z,29
2022-10-05T15:15:54.943Z,23
2022-10-05T15:17:54.965Z,21
2022-10-05T15:20:55.438Z,48
2022-10-05T15:23:54.979Z,46
2022-10-05T15:26:54.974Z,50
2022-10-05T15:29:54.978Z,65
2022-10-05T15:32:55.053Z,36
2022-10-05T15:35:54.956Z,75
2022-10-05T15:37:55.215Z,29
2022-10-05T15:39:55.221Z,42
2022-10-05T15:42:54.979Z,30
2022-10-05T15:44:54.928Z,30
2022-10-05T15:47:55.019Z,19
2022-10-05T15:49:54.991Z,33
2022-10-05T15:52:54.970Z,53
2022-10-05T15:55:54.941Z,221
2022-10-05T15:57:54.967Z,145
2022-10-05T15:59:54.948Z,76
2022-10-05T16:01:55.003Z,36
2022-10-05T16:03:54.982Z,33
2022-10-05T16:06:54.953Z,28
2022-10-05T16:08:54.982Z,52
2022-10-05T16:11:54.974Z,39
2022-10-05T16:13:55.000Z,13
2022-10-05T16:15:55.063Z,32
2022-10-05T16:18:54.969Z,53
2022-10-05T16:20:55.055Z,49
2022-10-05T16:23:54.973Z,46
2022-10-05T16:25:54.975Z,57
2022-10-05T16:28:54.972Z,17
2022-10-05T16:30:55.007Z,80
2022-10-05T16:32:55.221Z,58
2022-10-05T16:35:54.987Z,25
2022-10-05T16:37:54.974Z,24
2022-10-05T16:40:58.444Z,26
2022-10-05T16:43:54.974Z,44
2022-10-05T16:46:55.019Z,43
2022-10-05T16:48:54.981Z,17
2022-10-05T16:50:55.003Z,42
2022-10-05T16:53:54.987Z,21
2022-10-05T16:56:54.974Z,12
2022-10-05T16:58:55.302Z,22
2022-10-05T17:01:55.025Z,11
2022-10-05T17:04:54.997Z,28
2022-10-05T17:06:55.002Z,27
2022-10-05T17:09:54.992Z,18
2022-10-05T17:12:54.975Z,18
2022-10-05T17:15:55.052Z,29
2022-10-05T17:18:55.022Z,24
2022-10-05T17:21:54.954Z,19
2022-10-05T17:23:54.962Z,8
2022-10-05T17:25:55.005Z,32
2022-10-05T17:28:54.969Z,14
2022-10-05T17:30:55.041Z,7
2022-10-05T17:33:55.035Z,20
2022-10-05T17:36:54.973Z,35
2022-10-05T17:38:55.003Z,46
2022-10-05T17:41:54.992Z,20
2022-10-05T17:43:54.960Z,15
2022-10-05T17:45:55.081Z,17
2022-10-05T17:47:55.029Z,33
2022-10-05T17:50:54.999Z,41
2022-10-05T17:52:57.747Z,12
2022-10-05T17:55:54.983Z,18
2022-10-05T17:57:54.986Z,8
2022-10-05T18:00:55.003Z,17
2022-10-05T18:03:54.957Z,19
2022-10-05T18:05:54.998Z,10
2022-10-05T18:07:54.996Z,16
2022-10-05T18:10:55.052Z,17
2022-10-05T18:13:54.974Z,44
2022-10-05T18:15:55.046Z,52
2022-10-05T18:17:55.033Z,16
2022-10-05T18:20:55.233Z,32
2022-10-05T18:22:55.664Z,13
2022-10-05T18:25:55.005Z,15
2022-10-05T18:27:55.146Z,21
2022-10-05T18:30:55.121Z,19
2022-10-05T18:33:54.981Z,34
2022-10-05T18:36:54.996Z,46
2022-10-05T18:38:55.011Z,29
2022-10-05T18:40:55.038Z,14
2022-10-05T18:43:55.037Z,14
2022-10-05T18:46:55.075Z,12
2022-10-05T18:48:55.030Z,21
2022-10-05T18:51:55.011Z,21
2022-10-05T18:54:55.048Z,20
2022-10-05T18:57:55.025Z,11
2022-10-05T18:59:55.000Z,16
2022-10-05T19:02:55.080Z,20
2022-10-05T19:04:55.082Z,28
2022-10-05T19:07:55.031Z,22
2022-10-05T19:09:55.043Z,36
2022-10-05T19:12:55.080Z,37
2022-10-05T19:15:55.109Z,21
2022-10-05T19:18:55.023Z,39
2022-10-05T19:20:55.032Z,28
2022-10-05T19:23:55.032Z,19
2022-10-05T19:26:55.031Z,12
2022-10-05T19:29:55.025Z,17
2022-10-05T19:31:55.018Z,39
2022-10-05T19:33:55.023Z,15
2022-10-05T19:36:55.029Z,27
2022-10-05T19:39:55.007Z,12
2022-10-05T19:41:54.998Z,19
2022-10-05T19:43:55.059Z,16
2022-10-05T19:46:55.068Z,27
2022-10-05T19:48:55.044Z,20
2022-10-05T19:51:55.032Z,48
2022-10-05T19:53:55.034Z,21
2022-10-05T19:56:54.995Z,22
2022-10-05T19:58:55.027Z,14
2022-10-05T20:00:55.096Z,16
2022-10-05T20:03:55.038Z,23
2022-10-05T20:05:55.033Z,19
2022-10-05T20:08:55.071Z,17
2022-10-05T20:11:55.022Z,47
2022-10-05T20:13:55.042Z,19
2022-10-05T20:15:55.124Z,21
2022-10-05T20:17:55.039Z,16
2022-10-05T20:20:55.018Z,64
2022-10-05T20:22:55.015Z,13
2022-10-05T20:24:55.071Z,33
2022-10-05T20:27:55.091Z,18
2022-10-05T20:29:55.063Z,16
2022-10-05T20:32:55.058Z,44
2022-10-05T20:34:55.076Z,77
2022-10-05T20:36:55.106Z,30
2022-10-05T20:39:55.017Z,36
2022-10-05T20:41:55.509Z,38
2022-10-05T20:44:56.936Z,64
2022-10-05T20:47:55.098Z,21
2022-10-05T20:50:55.018Z,28
2022-10-05T20:52:55.038Z,17
2022-10-05T20:55:55.168Z,44
2022-10-05T20:58:55.027Z,40
2022-10-05T21:01:55.148Z,39
2022-10-05T21:04:55.070Z,29
2022-10-05T21:06:55.116Z,32
2022-10-05T21:09:55.090Z,24
2022-10-05T21:12:55.042Z,28
2022-10-05T21:15:55.254Z,18
2022-10-05T21:17:55.245Z,20
2022-10-05T21:20:57.587Z,34
2022-10-05T21:23:55.018Z,54
2022-10-05T21:25:55.069Z,46
2022-10-05T21:27:55.137Z,28
2022-10-05T21:30:55.139Z,31
2022-10-05T21:33:55.049Z,23
2022-10-05T21:35:55.090Z,58
2022-10-05T21:37:55.103Z,36
2022-10-05T21:40:55.077Z,22
2022-10-05T21:43:55.065Z,26
2022-10-05T21:45:55.167Z,40
2022-10-05T21:48:55.055Z,56
2022-10-05T21:50:55.062Z,49
2022-10-05T21:53:55.029Z,28
2022-10-05T21:55:55.730Z,49
2022-10-05T21:57:55.092Z,51
2022-10-05T22:00:55.142Z,28
2022-10-05T22:03:55.117Z,25
2022-10-05T22:06:55.095Z,44
2022-10-05T22:08:55.272Z,44
2022-10-05T22:11:55.135Z,22
2022-10-05T22:14:55.027Z,30
2022-10-05T22:16:55.084Z,31
2022-10-05T22:21:55.325Z,22
2022-10-05T22:23:55.127Z,76
2022-10-05T22:26:55.123Z,22
2022-10-05T22:29:55.073Z,47
2022-10-05T22:32:55.081Z,40
2022-10-05T22:35:55.036Z,17
2022-10-05T22:38:10.763Z,51
2022-10-05T22:39:55.081Z,19
2022-10-05T22:42:55.094Z,48
2022-10-05T22:44:55.098Z,53
2022-10-05T22:47:55.107Z,26
2022-10-05T22:50:56.124Z,78
2022-10-05T22:52:55.094Z,40
2022-10-05T22:54:55.086Z,42
2022-10-05T22:56:55.090Z,34
2022-10-05T22:58:55.090Z,70
2022-10-05T23:01:55.113Z,34
2022-10-05T23:03:55.145Z,23
2022-10-05T23:06:55.113Z,33
2022-10-05T23:09:55.060Z,39
2022-10-05T23:11:55.057Z,39
2022-10-05T23:14:55.087Z,31
2022-10-05T23:17:55.089Z,56
2022-10-05T23:19:55.131Z,57
2022-10-05T23:22:55.075Z,59
2022-10-05T23:24:55.111Z,50
2022-10-05T23:27:55.109Z,20
2022-10-05T23:30:55.174Z,52
2022-10-05T23:33:55.093Z,25
2022-10-05T23:35:55.098Z,31
2022-10-05T23:38:55.159Z,42
2022-10-05T23:41:55.077Z,57
2022-10-05T23:43:55.113Z,37
2022-10-05T23:46:55.088Z,33
2022-10-05T23:49:55.094Z,81
2022-10-05T23:51:55.106Z,53
2022-10-05T23:54:55.068Z,22
2022-10-05T23:57:55.093Z,51
2022-10-05T23:59:55.105Z,51
